Strona główna
METAR-TAF:

METAR-TAF

Lotnisko :

Port lotniczy Cambridge

Cambridge, Anglia

Szerokość geograficzna: 52-12N, Długość geograficzna: 000-11E, wysokość: 15 m

Aktualna obserwacja pogody

Raport powstał 28 minut temu, godzina 15:50 UTC
Wiatr 2 kt z kierunków zmiennych
Temperatura 25°C
Wilgotność 41%
Ciśnienie 1017 hPa
Widzialność 10 km lub więcej
Brak chmur poniżej 1500 m i brak chmur cumulonimbus

METAR: EGSC 161550Z VRB02KT CAVOK 25/11 Q1017

czas: 17:18 (16:18 UTC)

Prognoza

Raport powstał 2 godziny i 21 minut temu, godzina 13:57 UTC
Prognoza ważna od 16 godzina 15 UTC do 16 godzina 19 UTC
Wiatr 4 kt od południowy zachód
Widzialność 10 km lub więcej
Rozproszone chmury na wysokości 4500 ft

TAF: EGSC 161357Z 1615/1619 23004KT 9999 SCT045

Obserwacja i prognoza pogody dla ponad 4000 lotnisk (raport METAR i TAF).

Dostępne stacje oznaczono żółtymi i czerwonymi punktami na mapie.

Najedź kursorem aby zobaczyć nazwę stacji.

Kliknij aby zobaczyć obserwacje i prognozy pogody.

Aby zmienić mapę: kliknij na zielony przycisk z czarnym krzyżykiem, aby powiększyć; na zielony przycisk z myślnikiem, aby pomniejszyć; na zielone strzałki, aby przejść do map sąsiednich.


METAR-TAF: